sensor_id;sensor_type;location;lat;lon;timestamp;P1;durP1;ratioP1;P2;durP2;ratioP2
12986;SDS011;58897;51.960;5.582;2023-03-01T00:00:04;11.73;;;6.30;;
12986;SDS011;58897;51.960;5.582;2023-03-01T00:02:31;10.73;;;6.53;;
12986;SDS011;58897;51.960;5.582;2023-03-01T00:04:57;10.10;;;6.63;;
12986;SDS011;58897;51.960;5.582;2023-03-01T00:07:24;9.63;;;6.60;;
12986;SDS011;58897;51.960;5.582;2023-03-01T00:09:50;10.17;;;6.47;;
12986;SDS011;58897;51.960;5.582;2023-03-01T00:12:17;10.73;;;6.67;;
12986;SDS011;58897;51.960;5.582;2023-03-01T00:14:43;10.03;;;6.00;;
12986;SDS011;58897;51.960;5.582;2023-03-01T00:17:10;12.10;;;6.60;;
12986;SDS011;58897;51.960;5.582;2023-03-01T00:19:36;9.30;;;6.00;;
12986;SDS011;58897;51.960;5.582;2023-03-01T00:22:03;9.93;;;6.17;;
12986;SDS011;58897;51.960;5.582;2023-03-01T00:24:30;12.60;;;6.37;;
12986;SDS011;58897;51.960;5.582;2023-03-01T00:26:56;12.17;;;6.27;;
12986;SDS011;58897;51.960;5.582;2023-03-01T00:29:23;12.93;;;7.43;;
12986;SDS011;58897;51.960;5.582;2023-03-01T00:31:50;10.43;;;5.93;;
12986;SDS011;58897;51.960;5.582;2023-03-01T00:34:17;10.37;;;6.37;;
12986;SDS011;58897;51.960;5.582;2023-03-01T00:36:44;14.00;;;6.20;;
12986;SDS011;58897;51.960;5.582;2023-03-01T00:39:11;10.87;;;6.83;;
12986;SDS011;58897;51.960;5.582;2023-03-01T00:41:40;10.63;;;6.63;;
12986;SDS011;58897;51.960;5.582;2023-03-01T00:44:07;14.20;;;7.33;;
12986;SDS011;58897;51.960;5.582;2023-03-01T00:46:33;10.97;;;6.23;;
12986;SDS011;58897;51.960;5.582;2023-03-01T00:49:01;16.23;;;7.80;;
12986;SDS011;58897;51.960;5.582;2023-03-01T00:51:28;13.80;;;7.40;;
12986;SDS011;58897;51.960;5.582;2023-03-01T00:53:57;12.80;;;6.70;;
12986;SDS011;58897;51.960;5.582;2023-03-01T00:56:25;12.40;;;6.57;;
12986;SDS011;58897;51.960;5.582;2023-03-01T00:58:52;10.67;;;6.60;;
12986;SDS011;58897;51.960;5.582;2023-03-01T01:01:19;8.87;;;6.10;;
12986;SDS011;58897;51.960;5.582;2023-03-01T01:03:55;14.20;;;6.97;;
12986;SDS011;58897;51.960;5.582;2023-03-01T01:08:51;14.37;;;7.83;;
12986;SDS011;58897;51.960;5.582;2023-03-01T01:11:19;11.27;;;6.47;;
12986;SDS011;58897;51.960;5.582;2023-03-01T01:13:47;14.50;;;6.57;;
12986;SDS011;58897;51.960;5.582;2023-03-01T01:16:15;13.20;;;6.30;;
12986;SDS011;58897;51.960;5.582;2023-03-01T01:18:43;12.50;;;6.30;;
12986;SDS011;58897;51.960;5.582;2023-03-01T01:21:12;11.90;;;7.07;;
12986;SDS011;58897;51.960;5.582;2023-03-01T01:23:40;9.23;;;6.57;;
12986;SDS011;58897;51.960;5.582;2023-03-01T01:26:08;10.97;;;6.60;;
12986;SDS011;58897;51.960;5.582;2023-03-01T01:28:37;11.33;;;6.17;;
12986;SDS011;58897;51.960;5.582;2023-03-01T01:31:04;10.00;;;6.03;;
12986;SDS011;58897;51.960;5.582;2023-03-01T01:33:31;9.77;;;5.73;;
12986;SDS011;58897;51.960;5.582;2023-03-01T01:35:58;9.00;;;5.90;;
12986;SDS011;58897;51.960;5.582;2023-03-01T01:38:25;13.10;;;6.47;;
12986;SDS011;58897;51.960;5.582;2023-03-01T01:40:51;11.03;;;7.27;;
12986;SDS011;58897;51.960;5.582;2023-03-01T01:43:25;9.60;;;6.23;;
12986;SDS011;58897;51.960;5.582;2023-03-01T01:46:04;13.30;;;7.23;;
12986;SDS011;58897;51.960;5.582;2023-03-01T01:48:39;8.80;;;6.00;;
12986;SDS011;58897;51.960;5.582;2023-03-01T01:51:12;10.30;;;6.03;;
12986;SDS011;58897;51.960;5.582;2023-03-01T01:53:43;10.03;;;6.30;;
12986;SDS011;58897;51.960;5.582;2023-03-01T01:56:14;14.70;;;7.13;;
12986;SDS011;58897;51.960;5.582;2023-03-01T01:58:43;10.73;;;6.67;;
12986;SDS011;58897;51.960;5.582;2023-03-01T02:01:11;9.60;;;5.50;;
12986;SDS011;58897;51.960;5.582;2023-03-01T02:03:38;10.87;;;6.10;;
12986;SDS011;58897;51.960;5.582;2023-03-01T02:06:45;10.07;;;6.50;;
12986;SDS011;58897;51.960;5.582;2023-03-01T02:09:09;13.03;;;7.03;;
12986;SDS011;58897;51.960;5.582;2023-03-01T02:11:39;10.27;;;6.50;;
12986;SDS011;58897;51.960;5.582;2023-03-01T02:14:06;10.80;;;5.43;;
12986;SDS011;58897;51.960;5.582;2023-03-01T02:16:33;9.73;;;5.67;;
12986;SDS011;58897;51.960;5.582;2023-03-01T02:19:00;10.27;;;5.93;;
12986;SDS011;58897;51.960;5.582;2023-03-01T02:24:25;12.83;;;7.57;;
12986;SDS011;58897;51.960;5.582;2023-03-01T02:27:26;13.13;;;7.47;;
12986;SDS011;58897;51.960;5.582;2023-03-01T02:30:00;12.90;;;6.77;;
12986;SDS011;58897;51.960;5.582;2023-03-01T02:32:26;10.17;;;6.07;;
12986;SDS011;58897;51.960;5.582;2023-03-01T02:34:56;9.60;;;6.60;;
12986;SDS011;58897;51.960;5.582;2023-03-01T02:37:23;10.30;;;6.90;;
12986;SDS011;58897;51.960;5.582;2023-03-01T02:39:58;12.30;;;6.10;;
12986;SDS011;58897;51.960;5.582;2023-03-01T02:42:33;12.37;;;6.53;;
12986;SDS011;58897;51.960;5.582;2023-03-01T02:45:07;9.33;;;5.87;;
12986;SDS011;58897;51.960;5.582;2023-03-01T02:47:34;8.83;;;5.60;;
12986;SDS011;58897;51.960;5.582;2023-03-01T02:50:00;9.30;;;5.53;;
12986;SDS011;58897;51.960;5.582;2023-03-01T02:55:09;10.17;;;5.93;;
12986;SDS011;58897;51.960;5.582;2023-03-01T02:57:39;12.53;;;7.30;;
12986;SDS011;58897;51.960;5.582;2023-03-01T03:00:16;8.67;;;5.27;;
12986;SDS011;58897;51.960;5.582;2023-03-01T03:02:52;9.70;;;5.83;;
12986;SDS011;58897;51.960;5.582;2023-03-01T03:05:21;9.93;;;6.03;;
12986;SDS011;58897;51.960;5.582;2023-03-01T03:07:50;10.67;;;5.90;;
12986;SDS011;58897;51.960;5.582;2023-03-01T03:10:19;9.97;;;6.13;;
12986;SDS011;58897;51.960;5.582;2023-03-01T03:12:54;10.47;;;6.00;;
12986;SDS011;58897;51.960;5.582;2023-03-01T03:15:22;7.90;;;5.47;;
12986;SDS011;58897;51.960;5.582;2023-03-01T03:17:49;8.97;;;5.60;;
12986;SDS011;58897;51.960;5.582;2023-03-01T03:20:16;14.73;;;5.47;;
12986;SDS011;58897;51.960;5.582;2023-03-01T03:22:46;10.83;;;6.30;;
12986;SDS011;58897;51.960;5.582;2023-03-01T03:25:15;8.90;;;4.90;;
12986;SDS011;58897;51.960;5.582;2023-03-01T03:27:43;8.50;;;5.60;;
12986;SDS011;58897;51.960;5.582;2023-03-01T03:30:14;9.10;;;5.80;;
12986;SDS011;58897;51.960;5.582;2023-03-01T03:32:45;8.80;;;5.67;;
12986;SDS011;58897;51.960;5.582;2023-03-01T03:35:20;9.50;;;6.07;;
12986;SDS011;58897;51.960;5.582;2023-03-01T03:37:48;8.67;;;4.80;;
12986;SDS011;58897;51.960;5.582;2023-03-01T03:40:31;12.07;;;7.17;;
12986;SDS011;58897;51.960;5.582;2023-03-01T03:43:01;9.50;;;5.03;;
12986;SDS011;58897;51.960;5.582;2023-03-01T03:45:29;10.50;;;6.50;;
12986;SDS011;58897;51.960;5.582;2023-03-01T03:47:55;8.13;;;5.00;;
12986;SDS011;58897;51.960;5.582;2023-03-01T03:50:22;9.13;;;5.47;;
12986;SDS011;58897;51.960;5.582;2023-03-01T03:52:48;10.83;;;5.20;;
12986;SDS011;58897;51.960;5.582;2023-03-01T03:55:15;8.60;;;5.23;;
12986;SDS011;58897;51.960;5.582;2023-03-01T03:57:46;8.43;;;5.30;;
12986;SDS011;58897;51.960;5.582;2023-03-01T04:00:18;9.03;;;5.50;;
12986;SDS011;58897;51.960;5.582;2023-03-01T04:02:47;9.67;;;5.50;;
12986;SDS011;58897;51.960;5.582;2023-03-01T04:05:15;6.67;;;4.33;;
12986;SDS011;58897;51.960;5.582;2023-03-01T04:07:43;11.70;;;5.43;;
12986;SDS011;58897;51.960;5.582;2023-03-01T04:10:12;7.87;;;4.50;;
12986;SDS011;58897;51.960;5.582;2023-03-01T04:12:40;10.60;;;5.03;;
12986;SDS011;58897;51.960;5.582;2023-03-01T04:15:10;9.77;;;5.27;;
12986;SDS011;58897;51.960;5.582;2023-03-01T04:17:41;9.97;;;5.87;;
12986;SDS011;58897;51.960;5.582;2023-03-01T04:20:10;9.37;;;4.77;;
12986;SDS011;58897;51.960;5.582;2023-03-01T04:22:38;7.63;;;4.87;;
12986;SDS011;58897;51.960;5.582;2023-03-01T04:25:06;6.77;;;4.43;;
12986;SDS011;58897;51.960;5.582;2023-03-01T04:27:33;10.90;;;6.47;;
12986;SDS011;58897;51.960;5.582;2023-03-01T04:30:00;8.57;;;4.87;;
12986;SDS011;58897;51.960;5.582;2023-03-01T04:32:27;10.67;;;5.83;;
12986;SDS011;58897;51.960;5.582;2023-03-01T04:34:54;9.47;;;5.83;;
12986;SDS011;58897;51.960;5.582;2023-03-01T04:37:21;10.77;;;6.20;;
12986;SDS011;58897;51.960;5.582;2023-03-01T04:39:47;9.03;;;4.97;;
12986;SDS011;58897;51.960;5.582;2023-03-01T04:42:14;7.03;;;4.27;;
12986;SDS011;58897;51.960;5.582;2023-03-01T04:44:41;9.67;;;5.13;;
12986;SDS011;58897;51.960;5.582;2023-03-01T04:47:07;11.00;;;5.10;;
12986;SDS011;58897;51.960;5.582;2023-03-01T04:49:34;7.60;;;4.87;;
12986;SDS011;58897;51.960;5.582;2023-03-01T04:52:00;9.97;;;4.97;;
12986;SDS011;58897;51.960;5.582;2023-03-01T04:54:31;9.53;;;5.70;;
12986;SDS011;58897;51.960;5.582;2023-03-01T04:56:58;10.77;;;5.83;;
12986;SDS011;58897;51.960;5.582;2023-03-01T04:59:25;9.33;;;5.43;;
12986;SDS011;58897;51.960;5.582;2023-03-01T05:01:52;10.57;;;5.53;;
12986;SDS011;58897;51.960;5.582;2023-03-01T05:04:23;10.73;;;5.20;;
12986;SDS011;58897;51.960;5.582;2023-03-01T05:06:50;8.23;;;5.17;;
12986;SDS011;58897;51.960;5.582;2023-03-01T05:09:17;7.50;;;5.20;;
12986;SDS011;58897;51.960;5.582;2023-03-01T05:11:43;8.67;;;4.63;;
12986;SDS011;58897;51.960;5.582;2023-03-01T05:14:10;8.07;;;5.03;;
12986;SDS011;58897;51.960;5.582;2023-03-01T05:16:37;10.87;;;5.90;;
12986;SDS011;58897;51.960;5.582;2023-03-01T05:19:04;7.20;;;4.93;;
12986;SDS011;58897;51.960;5.582;2023-03-01T05:21:38;11.93;;;5.50;;
12986;SDS011;58897;51.960;5.582;2023-03-01T05:24:25;10.60;;;5.40;;
12986;SDS011;58897;51.960;5.582;2023-03-01T05:26:52;8.40;;;5.30;;
12986;SDS011;58897;51.960;5.582;2023-03-01T05:29:20;11.83;;;5.53;;
12986;SDS011;58897;51.960;5.582;2023-03-01T05:31:54;10.17;;;4.73;;
12986;SDS011;58897;51.960;5.582;2023-03-01T05:34:24;7.60;;;4.83;;
12986;SDS011;58897;51.960;5.582;2023-03-01T05:36:52;7.20;;;4.30;;
12986;SDS011;58897;51.960;5.582;2023-03-01T05:39:20;7.97;;;4.60;;
12986;SDS011;58897;51.960;5.582;2023-03-01T05:41:51;8.87;;;4.70;;
12986;SDS011;58897;51.960;5.582;2023-03-01T05:44:20;7.83;;;5.07;;
12986;SDS011;58897;51.960;5.582;2023-03-01T05:46:46;8.50;;;5.00;;
12986;SDS011;58897;51.960;5.582;2023-03-01T05:49:13;8.97;;;4.70;;
12986;SDS011;58897;51.960;5.582;2023-03-01T05:51:40;8.30;;;5.60;;
12986;SDS011;58897;51.960;5.582;2023-03-01T05:54:08;7.47;;;4.63;;
12986;SDS011;58897;51.960;5.582;2023-03-01T05:56:35;9.43;;;4.87;;
12986;SDS011;58897;51.960;5.582;2023-03-01T05:59:02;9.97;;;4.80;;
12986;SDS011;58897;51.960;5.582;2023-03-01T06:01:31;10.73;;;5.70;;
12986;SDS011;58897;51.960;5.582;2023-03-01T06:03:59;9.10;;;5.00;;
12986;SDS011;58897;51.960;5.582;2023-03-01T06:06:26;7.80;;;5.27;;
12986;SDS011;58897;51.960;5.582;2023-03-01T06:08:54;9.27;;;5.60;;
12986;SDS011;58897;51.960;5.582;2023-03-01T06:11:21;8.80;;;5.27;;
12986;SDS011;58897;51.960;5.582;2023-03-01T06:13:48;8.83;;;5.13;;
12986;SDS011;58897;51.960;5.582;2023-03-01T06:16:14;10.97;;;5.60;;
12986;SDS011;58897;51.960;5.582;2023-03-01T06:18:41;6.97;;;4.73;;
12986;SDS011;58897;51.960;5.582;2023-03-01T06:21:08;9.27;;;5.70;;
12986;SDS011;58897;51.960;5.582;2023-03-01T06:23:35;9.57;;;5.70;;
12986;SDS011;58897;51.960;5.582;2023-03-01T06:26:04;9.37;;;5.13;;
12986;SDS011;58897;51.960;5.582;2023-03-01T06:28:32;8.50;;;5.30;;
12986;SDS011;58897;51.960;5.582;2023-03-01T06:30:59;10.77;;;5.07;;
12986;SDS011;58897;51.960;5.582;2023-03-01T06:33:25;9.70;;;5.00;;
12986;SDS011;58897;51.960;5.582;2023-03-01T06:35:54;8.97;;;4.73;;
12986;SDS011;58897;51.960;5.582;2023-03-01T06:38:23;9.27;;;5.10;;
12986;SDS011;58897;51.960;5.582;2023-03-01T06:40:54;8.53;;;5.87;;
12986;SDS011;58897;51.960;5.582;2023-03-01T06:43:21;10.77;;;6.23;;
12986;SDS011;58897;51.960;5.582;2023-03-01T06:45:47;8.93;;;5.27;;
12986;SDS011;58897;51.960;5.582;2023-03-01T06:48:14;8.90;;;5.67;;
12986;SDS011;58897;51.960;5.582;2023-03-01T06:50:41;11.43;;;6.00;;
12986;SDS011;58897;51.960;5.582;2023-03-01T06:53:07;8.03;;;5.03;;
12986;SDS011;58897;51.960;5.582;2023-03-01T06:55:34;12.83;;;7.40;;
12986;SDS011;58897;51.960;5.582;2023-03-01T06:58:01;9.30;;;5.20;;
12986;SDS011;58897;51.960;5.582;2023-03-01T07:00:29;10.37;;;5.40;;
12986;SDS011;58897;51.960;5.582;2023-03-01T07:02:58;11.93;;;6.07;;
12986;SDS011;58897;51.960;5.582;2023-03-01T07:05:25;10.30;;;5.93;;
12986;SDS011;58897;51.960;5.582;2023-03-01T07:07:53;10.37;;;6.07;;
12986;SDS011;58897;51.960;5.582;2023-03-01T07:10:20;10.00;;;5.20;;
12986;SDS011;58897;51.960;5.582;2023-03-01T07:12:46;7.07;;;4.90;;
12986;SDS011;58897;51.960;5.582;2023-03-01T07:15:13;13.67;;;5.63;;
12986;SDS011;58897;51.960;5.582;2023-03-01T07:17:41;12.77;;;6.63;;
12986;SDS011;58897;51.960;5.582;2023-03-01T07:20:07;9.43;;;5.00;;
12986;SDS011;58897;51.960;5.582;2023-03-01T07:22:34;11.53;;;6.17;;
12986;SDS011;58897;51.960;5.582;2023-03-01T07:25:01;10.37;;;5.90;;
12986;SDS011;58897;51.960;5.582;2023-03-01T07:27:27;11.63;;;6.00;;
12986;SDS011;58897;51.960;5.582;2023-03-01T07:29:54;10.30;;;5.83;;
12986;SDS011;58897;51.960;5.582;2023-03-01T07:32:20;9.23;;;5.47;;
12986;SDS011;58897;51.960;5.582;2023-03-01T07:34:47;10.57;;;5.63;;
12986;SDS011;58897;51.960;5.582;2023-03-01T07:37:13;12.20;;;5.57;;
12986;SDS011;58897;51.960;5.582;2023-03-01T07:39:40;11.27;;;5.97;;
12986;SDS011;58897;51.960;5.582;2023-03-01T07:42:06;8.03;;;5.20;;
12986;SDS011;58897;51.960;5.582;2023-03-01T07:44:33;12.10;;;6.33;;
12986;SDS011;58897;51.960;5.582;2023-03-01T07:47:00;14.80;;;6.50;;
12986;SDS011;58897;51.960;5.582;2023-03-01T07:49:27;13.77;;;5.67;;
12986;SDS011;58897;51.960;5.582;2023-03-01T07:51:53;11.43;;;5.90;;
12986;SDS011;58897;51.960;5.582;2023-03-01T07:54:20;10.50;;;6.57;;
12986;SDS011;58897;51.960;5.582;2023-03-01T07:56:47;9.37;;;5.73;;
12986;SDS011;58897;51.960;5.582;2023-03-01T07:59:13;8.03;;;4.93;;
12986;SDS011;58897;51.960;5.582;2023-03-01T08:01:40;9.80;;;6.20;;
12986;SDS011;58897;51.960;5.582;2023-03-01T08:04:07;13.00;;;4.90;;
12986;SDS011;58897;51.960;5.582;2023-03-01T08:06:34;11.10;;;6.13;;
12986;SDS011;58897;51.960;5.582;2023-03-01T08:09:01;7.77;;;5.33;;
12986;SDS011;58897;51.960;5.582;2023-03-01T08:11:28;9.80;;;5.60;;
12986;SDS011;58897;51.960;5.582;2023-03-01T08:13:55;10.50;;;6.50;;
12986;SDS011;58897;51.960;5.582;2023-03-01T08:16:22;9.20;;;5.73;;
12986;SDS011;58897;51.960;5.582;2023-03-01T08:18:49;11.50;;;6.57;;
12986;SDS011;58897;51.960;5.582;2023-03-01T08:21:16;10.97;;;5.57;;
12986;SDS011;58897;51.960;5.582;2023-03-01T08:23:44;10.60;;;6.13;;
12986;SDS011;58897;51.960;5.582;2023-03-01T08:26:18;11.03;;;6.07;;
12986;SDS011;58897;51.960;5.582;2023-03-01T08:28:47;11.47;;;6.50;;
12986;SDS011;58897;51.960;5.582;2023-03-01T08:31:24;11.27;;;6.47;;
12986;SDS011;58897;51.960;5.582;2023-03-01T08:33:57;9.90;;;5.80;;
12986;SDS011;58897;51.960;5.582;2023-03-01T08:36:30;10.40;;;6.37;;
12986;SDS011;58897;51.960;5.582;2023-03-01T08:38:59;10.47;;;7.17;;
12986;SDS011;58897;51.960;5.582;2023-03-01T08:41:26;11.63;;;6.47;;
12986;SDS011;58897;51.960;5.582;2023-03-01T08:43:53;11.47;;;5.90;;
12986;SDS011;58897;51.960;5.582;2023-03-01T08:46:28;11.10;;;6.10;;
12986;SDS011;58897;51.960;5.582;2023-03-01T08:48:57;11.00;;;5.30;;
12986;SDS011;58897;51.960;5.582;2023-03-01T08:51:24;9.13;;;5.77;;
12986;SDS011;58897;51.960;5.582;2023-03-01T08:53:51;8.67;;;5.93;;
12986;SDS011;58897;51.960;5.582;2023-03-01T08:56:18;6.87;;;4.80;;
12986;SDS011;58897;51.960;5.582;2023-03-01T08:58:46;8.40;;;5.40;;
12986;SDS011;58897;51.960;5.582;2023-03-01T09:01:17;8.73;;;5.60;;
12986;SDS011;58897;51.960;5.582;2023-03-01T09:03:45;10.20;;;5.57;;
12986;SDS011;58897;51.960;5.582;2023-03-01T09:06:12;6.90;;;5.07;;
12986;SDS011;58897;51.960;5.582;2023-03-01T09:08:41;6.17;;;4.40;;
12986;SDS011;58897;51.960;5.582;2023-03-01T09:11:09;7.00;;;4.20;;
12986;SDS011;58897;51.960;5.582;2023-03-01T09:13:38;5.93;;;3.73;;
12986;SDS011;58897;51.960;5.582;2023-03-01T09:16:07;6.50;;;4.37;;
12986;SDS011;58897;51.960;5.582;2023-03-01T09:18:34;6.50;;;3.83;;
12986;SDS011;58897;51.960;5.582;2023-03-01T09:21:02;5.60;;;4.40;;
12986;SDS011;58897;51.960;5.582;2023-03-01T09:23:36;5.93;;;4.23;;
12986;SDS011;58897;51.960;5.582;2023-03-01T09:26:06;9.13;;;4.50;;
12986;SDS011;58897;51.960;5.582;2023-03-01T09:28:35;6.73;;;3.70;;
12986;SDS011;58897;51.960;5.582;2023-03-01T09:31:02;4.87;;;3.17;;
12986;SDS011;58897;51.960;5.582;2023-03-01T09:33:29;7.07;;;3.80;;
12986;SDS011;58897;51.960;5.582;2023-03-01T09:38:24;5.37;;;4.10;;
12986;SDS011;58897;51.960;5.582;2023-03-01T09:40:52;5.93;;;4.60;;
12986;SDS011;58897;51.960;5.582;2023-03-01T09:46:14;4.63;;;3.30;;
12986;SDS011;58897;51.960;5.582;2023-03-01T09:48:57;4.50;;;3.53;;
12986;SDS011;58897;51.960;5.582;2023-03-01T09:51:31;5.40;;;3.47;;
12986;SDS011;58897;51.960;5.582;2023-03-01T09:54:00;6.37;;;3.43;;
12986;SDS011;58897;51.960;5.582;2023-03-01T09:59:16;5.97;;;3.43;;
12986;SDS011;58897;51.960;5.582;2023-03-01T10:09:36;3.50;;;3.13;;
12986;SDS011;58897;51.960;5.582;2023-03-01T10:12:08;3.70;;;2.93;;
12986;SDS011;58897;51.960;5.582;2023-03-01T10:14:48;4.83;;;3.40;;
12986;SDS011;58897;51.960;5.582;2023-03-01T10:23:04;3.50;;;2.80;;
12986;SDS011;58897;51.960;5.582;2023-03-01T10:30:57;4.87;;;3.23;;
12986;SDS011;58897;51.960;5.582;2023-03-01T10:33:29;4.07;;;3.07;;
12986;SDS011;58897;51.960;5.582;2023-03-01T10:35:58;3.77;;;2.93;;
12986;SDS011;58897;51.960;5.582;2023-03-01T10:38:25;4.20;;;3.00;;
12986;SDS011;58897;51.960;5.582;2023-03-01T10:43:42;4.50;;;2.90;;
12986;SDS011;58897;51.960;5.582;2023-03-01T10:46:21;4.13;;;3.10;;
12986;SDS011;58897;51.960;5.582;2023-03-01T10:51:52;5.00;;;3.47;;
12986;SDS011;58897;51.960;5.582;2023-03-01T10:54:30;4.20;;;3.40;;
12986;SDS011;58897;51.960;5.582;2023-03-01T10:56:59;5.80;;;4.03;;
12986;SDS011;58897;51.960;5.582;2023-03-01T10:59:29;5.13;;;3.63;;
12986;SDS011;58897;51.960;5.582;2023-03-01T11:02:17;4.13;;;3.40;;
12986;SDS011;58897;51.960;5.582;2023-03-01T11:04:58;6.37;;;3.53;;
12986;SDS011;58897;51.960;5.582;2023-03-01T11:07:26;3.53;;;3.23;;
12986;SDS011;58897;51.960;5.582;2023-03-01T11:09:53;4.33;;;3.40;;
12986;SDS011;58897;51.960;5.582;2023-03-01T11:12:20;5.30;;;3.80;;
12986;SDS011;58897;51.960;5.582;2023-03-01T11:14:48;3.87;;;3.27;;
12986;SDS011;58897;51.960;5.582;2023-03-01T11:17:28;5.10;;;3.83;;
12986;SDS011;58897;51.960;5.582;2023-03-01T11:22:53;5.90;;;4.10;;
12986;SDS011;58897;51.960;5.582;2023-03-01T11:25:26;5.57;;;3.50;;
12986;SDS011;58897;51.960;5.582;2023-03-01T11:27:56;6.53;;;4.20;;
12986;SDS011;58897;51.960;5.582;2023-03-01T11:30:27;4.93;;;3.90;;
12986;SDS011;58897;51.960;5.582;2023-03-01T11:33:15;8.07;;;4.80;;
12986;SDS011;58897;51.960;5.582;2023-03-01T11:38:57;8.07;;;5.60;;
12986;SDS011;58897;51.960;5.582;2023-03-01T11:41:32;7.10;;;4.00;;
12986;SDS011;58897;51.960;5.582;2023-03-01T11:44:10;6.63;;;4.43;;
12986;SDS011;58897;51.960;5.582;2023-03-01T11:49:44;6.10;;;4.30;;
12986;SDS011;58897;51.960;5.582;2023-03-01T11:52:56;8.60;;;4.23;;
12986;SDS011;58897;51.960;5.582;2023-03-01T11:55:39;6.57;;;4.03;;
12986;SDS011;58897;51.960;5.582;2023-03-01T12:01:04;7.00;;;4.07;;
12986;SDS011;58897;51.960;5.582;2023-03-01T12:12:09;3.77;;;3.07;;
12986;SDS011;58897;51.960;5.582;2023-03-01T12:15:32;4.23;;;3.53;;
12986;SDS011;58897;51.960;5.582;2023-03-01T12:26:24;7.07;;;3.47;;
12986;SDS011;58897;51.960;5.582;2023-03-01T12:35:43;6.73;;;3.30;;
12986;SDS011;58897;51.960;5.582;2023-03-01T12:51:40;6.40;;;3.77;;
12986;SDS011;58897;51.960;5.582;2023-03-01T12:54:16;10.70;;;4.00;;
12986;SDS011;58897;51.960;5.582;2023-03-01T12:56:49;7.20;;;3.20;;
12986;SDS011;58897;51.960;5.582;2023-03-01T12:59:24;5.60;;;3.40;;
12986;SDS011;58897;51.960;5.582;2023-03-01T13:10:19;5.97;;;4.17;;
12986;SDS011;58897;51.960;5.582;2023-03-01T13:13:02;5.87;;;4.30;;
12986;SDS011;58897;51.960;5.582;2023-03-01T13:15:39;4.20;;;3.30;;
12986;SDS011;58897;51.960;5.582;2023-03-01T13:23:11;9.40;;;4.43;;
12986;SDS011;58897;51.960;5.582;2023-03-01T13:33:43;5.10;;;4.17;;
12986;SDS011;58897;51.960;5.582;2023-03-01T13:38:56;9.37;;;4.73;;
12986;SDS011;58897;51.960;5.582;2023-03-01T13:44:32;5.97;;;4.87;;
12986;SDS011;58897;51.960;5.582;2023-03-01T13:49:59;5.00;;;3.87;;
12986;SDS011;58897;51.960;5.582;2023-03-01T13:57:47;5.93;;;3.73;;
12986;SDS011;58897;51.960;5.582;2023-03-01T14:00:33;4.73;;;3.43;;
12986;SDS011;58897;51.960;5.582;2023-03-01T14:05:34;6.83;;;4.00;;
12986;SDS011;58897;51.960;5.582;2023-03-01T14:08:03;6.70;;;4.97;;
12986;SDS011;58897;51.960;5.582;2023-03-01T14:10:54;6.73;;;3.87;;
12986;SDS011;58897;51.960;5.582;2023-03-01T14:16:27;5.63;;;3.87;;
12986;SDS011;58897;51.960;5.582;2023-03-01T14:19:02;5.43;;;4.17;;
12986;SDS011;58897;51.960;5.582;2023-03-01T14:24:46;6.23;;;4.00;;
12986;SDS011;58897;51.960;5.582;2023-03-01T14:27:15;6.57;;;4.03;;
12986;SDS011;58897;51.960;5.582;2023-03-01T14:29:43;5.57;;;3.60;;
12986;SDS011;58897;51.960;5.582;2023-03-01T14:32:18;6.43;;;4.07;;
12986;SDS011;58897;51.960;5.582;2023-03-01T14:34:51;6.33;;;4.30;;
12986;SDS011;58897;51.960;5.582;2023-03-01T14:37:22;6.27;;;4.43;;
12986;SDS011;58897;51.960;5.582;2023-03-01T14:39:49;5.67;;;3.63;;
12986;SDS011;58897;51.960;5.582;2023-03-01T14:42:16;6.43;;;3.63;;
12986;SDS011;58897;51.960;5.582;2023-03-01T14:44:44;4.57;;;3.37;;
12986;SDS011;58897;51.960;5.582;2023-03-01T14:47:23;5.97;;;3.70;;
12986;SDS011;58897;51.960;5.582;2023-03-01T14:49:57;6.20;;;4.23;;
12986;SDS011;58897;51.960;5.582;2023-03-01T14:52:35;5.37;;;3.43;;
12986;SDS011;58897;51.960;5.582;2023-03-01T14:55:05;5.07;;;4.00;;
12986;SDS011;58897;51.960;5.582;2023-03-01T14:57:42;3.90;;;3.33;;
12986;SDS011;58897;51.960;5.582;2023-03-01T15:00:10;5.50;;;3.77;;
12986;SDS011;58897;51.960;5.582;2023-03-01T15:02:45;5.57;;;3.57;;
12986;SDS011;58897;51.960;5.582;2023-03-01T15:05:14;5.37;;;3.90;;
12986;SDS011;58897;51.960;5.582;2023-03-01T15:07:44;5.03;;;3.33;;
12986;SDS011;58897;51.960;5.582;2023-03-01T15:10:24;3.67;;;3.00;;
12986;SDS011;58897;51.960;5.582;2023-03-01T15:12:56;7.27;;;4.10;;
12986;SDS011;58897;51.960;5.582;2023-03-01T15:15:36;6.07;;;3.83;;
12986;SDS011;58897;51.960;5.582;2023-03-01T15:18:18;7.50;;;3.40;;
12986;SDS011;58897;51.960;5.582;2023-03-01T15:20:47;6.57;;;4.03;;
12986;SDS011;58897;51.960;5.582;2023-03-01T15:25:47;7.50;;;4.33;;
12986;SDS011;58897;51.960;5.582;2023-03-01T15:28:24;8.00;;;3.57;;
12986;SDS011;58897;51.960;5.582;2023-03-01T15:31:04;6.13;;;3.57;;
12986;SDS011;58897;51.960;5.582;2023-03-01T15:33:45;5.53;;;3.53;;
12986;SDS011;58897;51.960;5.582;2023-03-01T15:36:33;9.90;;;5.30;;
12986;SDS011;58897;51.960;5.582;2023-03-01T15:39:05;6.73;;;3.77;;
12986;SDS011;58897;51.960;5.582;2023-03-01T15:41:50;5.60;;;3.43;;
12986;SDS011;58897;51.960;5.582;2023-03-01T15:44:26;5.70;;;3.77;;
12986;SDS011;58897;51.960;5.582;2023-03-01T15:47:21;5.43;;;3.33;;
12986;SDS011;58897;51.960;5.582;2023-03-01T15:49:53;6.60;;;3.60;;
12986;SDS011;58897;51.960;5.582;2023-03-01T15:55:02;7.87;;;3.90;;
12986;SDS011;58897;51.960;5.582;2023-03-01T15:57:31;5.33;;;2.90;;
12986;SDS011;58897;51.960;5.582;2023-03-01T15:59:57;4.37;;;3.10;;
12986;SDS011;58897;51.960;5.582;2023-03-01T16:02:24;4.33;;;2.93;;
12986;SDS011;58897;51.960;5.582;2023-03-01T16:04:51;5.20;;;3.20;;
12986;SDS011;58897;51.960;5.582;2023-03-01T16:07:17;4.87;;;2.80;;
12986;SDS011;58897;51.960;5.582;2023-03-01T16:09:44;6.13;;;3.63;;
12986;SDS011;58897;51.960;5.582;2023-03-01T16:12:14;8.27;;;4.43;;
12986;SDS011;58897;51.960;5.582;2023-03-01T16:14:42;4.23;;;2.90;;
12986;SDS011;58897;51.960;5.582;2023-03-01T16:17:09;7.73;;;4.33;;
12986;SDS011;58897;51.960;5.582;2023-03-01T16:19:37;5.40;;;3.17;;
12986;SDS011;58897;51.960;5.582;2023-03-01T16:22:04;5.53;;;3.30;;
12986;SDS011;58897;51.960;5.582;2023-03-01T16:24:31;4.67;;;2.97;;
12986;SDS011;58897;51.960;5.582;2023-03-01T16:26:57;4.87;;;3.17;;
12986;SDS011;58897;51.960;5.582;2023-03-01T16:29:24;7.40;;;3.47;;
12986;SDS011;58897;51.960;5.582;2023-03-01T16:31:50;7.83;;;4.17;;
12986;SDS011;58897;51.960;5.582;2023-03-01T16:34:17;7.93;;;4.20;;
12986;SDS011;58897;51.960;5.582;2023-03-01T16:36:43;5.77;;;2.90;;
12986;SDS011;58897;51.960;5.582;2023-03-01T16:39:10;6.03;;;3.13;;
12986;SDS011;58897;51.960;5.582;2023-03-01T16:41:36;5.97;;;2.90;;
12986;SDS011;58897;51.960;5.582;2023-03-01T16:44:03;5.50;;;3.00;;
12986;SDS011;58897;51.960;5.582;2023-03-01T16:46:29;5.57;;;3.13;;
12986;SDS011;58897;51.960;5.582;2023-03-01T16:48:56;7.00;;;2.90;;
12986;SDS011;58897;51.960;5.582;2023-03-01T16:51:23;4.50;;;3.03;;
12986;SDS011;58897;51.960;5.582;2023-03-01T16:53:50;6.27;;;3.70;;
12986;SDS011;58897;51.960;5.582;2023-03-01T16:56:17;7.50;;;4.03;;
12986;SDS011;58897;51.960;5.582;2023-03-01T16:58:45;6.03;;;3.30;;
12986;SDS011;58897;51.960;5.582;2023-03-01T17:01:13;6.57;;;4.00;;
12986;SDS011;58897;51.960;5.582;2023-03-01T17:03:45;3.57;;;2.30;;
12986;SDS011;58897;51.960;5.582;2023-03-01T17:06:13;4.77;;;2.77;;
12986;SDS011;58897;51.960;5.582;2023-03-01T17:08:42;4.67;;;2.70;;
12986;SDS011;58897;51.960;5.582;2023-03-01T17:11:10;6.63;;;3.93;;
12986;SDS011;58897;51.960;5.582;2023-03-01T17:13:46;5.37;;;2.83;;
12986;SDS011;58897;51.960;5.582;2023-03-01T17:16:14;6.10;;;3.27;;
12986;SDS011;58897;51.960;5.582;2023-03-01T17:18:43;7.13;;;3.13;;